Time;durP1;ratioP1;P1;durP2;ratioP2;P2;SDS_P1;SDS_P2;PMS_P1;PMS_P2;Temp;Humidity;BMP_temperature;BMP_pressure;BME280_temperature;BME280_humidity;BME280_pressure;Samples;Min_cycle;Max_cycle;Signal;HPM_P1;HPM_P2
2023/10/12 00:01:32;;;;;;;;;;;;;;;17.35;63.47;100863.31;5406922;32;34654;-74
2023/10/12 00:07:45;;;;;;;;;;;;;;;17.82;60.63;100841.84;5424554;32;35119;-74
2023/10/12 00:10:53;;;;;;;;;;;;;;;16.87;63.02;100854.59;5422932;32;35643;-74
2023/10/12 00:13:56;;;;;;;;;;;;;;;17.04;63.09;100838.56;5421560;32;35078;-69
2023/10/12 00:16:58;;;;;;;;;;;;;;;17.30;61.55;100843.16;5423331;32;35363;-73
2023/10/12 00:20:00;;;;;;;;;;;;;;;17.56;60.98;100838.09;5420611;32;35628;-74
2023/10/12 00:23:09;;;;;;;;;;;;;;;17.81;59.80;100830.34;5430671;32;34332;-74
2023/10/12 00:26:13;;;;;;;;;;;;;;;17.17;61.66;100833.37;5420929;32;34721;-72
2023/10/12 00:29:15;;;;;;;;;;;;;;;17.51;60.62;100834.84;5408152;32;34935;-69
2023/10/12 00:32:18;;;;;;;;;;;;;;;16.42;64.17;100835.91;5423753;32;35534;-73
2023/10/12 00:35:20;;;;;;;;;;;;;;;15.98;66.00;100830.41;5419763;32;35560;-72
2023/10/12 00:38:28;;;;;;;;;;;;;;;16.15;65.63;100830.31;5407612;32;34342;-69
2023/10/12 00:41:35;;;;;;;;;;;;;;;16.78;63.83;100830.31;5420243;32;35746;-73
2023/10/12 00:44:40;;;;;;;;;;;;;;;17.44;61.11;100817.56;5422649;32;35670;-68
2023/10/12 00:47:48;;;;;;;;;;;;;;;17.82;59.45;100818.75;5419636;32;35133;-68
2023/10/12 00:50:50;;;;;;;;;;;;;;;17.63;59.80;100817.31;5421685;32;35290;-73
2023/10/12 00:53:55;;;;;;;;;;;;;;;16.90;61.97;100814.62;5418417;32;34929;-69
2023/10/12 00:57:01;;;;;;;;;;;;;;;16.30;64.43;100825.12;5420477;32;34684;-74
2023/10/12 01:00:15;;;;;;;;;;;;;;;16.65;64.00;100817.81;5423540;32;35449;-68
2023/10/12 01:06:33;;;;;;;;;;;;;;;16.41;64.76;100820.03;5424383;32;34468;-69
2023/10/12 01:09:43;;;;;;;;;;;;;;;16.13;65.83;100811.00;5427274;32;34219;-74
2023/10/12 01:12:45;;;;;;;;;;;;;;;16.08;66.22;100806.87;5417833;32;35273;-70
2023/10/12 01:15:47;;;;;;;;;;;;;;;16.06;66.97;100811.41;5417267;32;35122;-74
2023/10/12 01:19:20;;;;;;;;;;;;;;;16.26;66.65;100811.16;5415295;32;35416;-73
2023/10/12 01:22:15;;;;;;;;;;;;;;;15.52;68.01;100806.34;5423417;32;33855;-74
2023/10/12 01:25:22;;;;;;;;;;;;;;;15.41;67.86;100811.34;5424141;32;35014;-72
2023/10/12 01:28:25;;;;;;;;;;;;;;;15.91;66.62;100808.69;5421008;32;35091;-69
2023/10/12 01:31:28;;;;;;;;;;;;;;;16.21;65.35;100798.16;5426952;32;34952;-74
2023/10/12 01:34:30;;;;;;;;;;;;;;;16.43;65.05;100799.63;5421871;32;35063;-68
2023/10/12 01:37:47;;;;;;;;;;;;;;;16.93;62.93;100787.88;5417392;32;35844;-70
2023/10/12 01:43:52;;;;;;;;;;;;;;;17.10;61.49;100793.03;5422615;32;34579;-74
2023/10/12 01:46:56;;;;;;;;;;;;;;;16.78;62.45;100789.63;5426958;32;35476;-74
2023/10/12 01:50:00;;;;;;;;;;;;;;;16.57;63.20;100786.41;5423035;32;34606;-69
2023/10/12 01:53:07;;;;;;;;;;;;;;;16.17;65.00;100793.97;5426159;32;34688;-69
2023/10/12 01:56:10;;;;;;;;;;;;;;;15.56;67.74;100797.28;5422965;32;34875;-70
2023/10/12 01:59:12;;;;;;;;;;;;;;;15.52;68.38;100797.50;5426485;32;34725;-70
2023/10/12 02:02:15;;;;;;;;;;;;;;;15.37;69.21;100800.03;5413765;32;34415;-74
2023/10/12 02:05:24;;;;;;;;;;;;;;;15.28;69.57;100797.88;5420259;32;35351;-73
2023/10/12 02:08:32;;;;;;;;;;;;;;;15.43;69.06;100798.84;5424024;32;34956;-73
2023/10/12 02:11:45;;;;;;;;;;;;;;;15.18;71.06;100799.28;5422170;32;34539;-73
2023/10/12 02:14:47;;;;;;;;;;;;;;;15.08;71.72;100798.06;5410899;32;35750;-73
2023/10/12 02:17:50;;;;;;;;;;;;;;;15.13;71.07;100785.41;5420568;32;35179;-69
2023/10/12 02:27:13;;;;;;;;;;;;;;;15.85;67.37;100797.56;5421775;32;34821;-73
2023/10/12 02:30:18;;;;;;;;;;;;;;;15.29;69.33;100794.28;5427020;32;34788;-68
2023/10/12 02:33:27;;;;;;;;;;;;;;;14.79;71.66;100802.16;5421476;32;35162;-70
2023/10/12 02:36:29;;;;;;;;;;;;;;;14.57;73.80;100800.59;5419277;32;34896;-73
2023/10/12 02:39:34;;;;;;;;;;;;;;;14.82;72.36;100794.09;5418489;32;34914;-73
2023/10/12 02:42:38;;;;;;;;;;;;;;;15.23;70.66;100793.75;5422161;32;34655;-74
2023/10/12 02:45:42;;;;;;;;;;;;;;;15.64;69.05;100797.75;5426049;32;34843;-74
2023/10/12 02:48:47;;;;;;;;;;;;;;;14.77;72.00;100790.81;5413778;32;35160;-74
2023/10/12 02:51:50;;;;;;;;;;;;;;;14.34;74.49;100798.16;5425765;32;36022;-69
2023/10/12 02:54:55;;;;;;;;;;;;;;;14.84;72.37;100795.72;5422400;32;35014;-70
2023/10/12 02:58:07;;;;;;;;;;;;;;;15.05;70.95;100790.25;5405551;32;35617;-69
2023/10/12 03:01:12;;;;;;;;;;;;;;;14.55;73.21;100797.13;5420954;32;35082;-73
2023/10/12 03:04:17;;;;;;;;;;;;;;;14.73;73.06;100781.31;5421311;32;35879;-69
2023/10/12 03:07:23;;;;;;;;;;;;;;;14.74;72.49;100794.44;5425918;32;35359;-75
2023/10/12 03:10:26;;;;;;;;;;;;;;;14.85;72.43;100789.47;5420248;32;35514;-69
2023/10/12 03:13:36;;;;;;;;;;;;;;;14.47;73.93;100783.44;5403037;32;35088;-69
2023/10/12 03:16:41;;;;;;;;;;;;;;;14.55;74.04;100777.78;5423815;32;35859;-68
2023/10/12 03:20:17;;;;;;;;;;;;;;;14.74;72.77;100785.66;5421381;32;35167;-68
2023/10/12 03:23:19;;;;;;;;;;;;;;;14.37;74.22;100787.44;5429462;32;34063;-69
2023/10/12 03:26:24;;;;;;;;;;;;;;;14.11;75.40;100790.50;5415640;32;35144;-69
2023/10/12 03:29:28;;;;;;;;;;;;;;;14.55;73.83;100783.06;5422328;32;34758;-74
2023/10/12 03:32:31;;;;;;;;;;;;;;;14.44;73.92;100786.22;5424166;32;34421;-73
2023/10/12 03:35:39;;;;;;;;;;;;;;;14.03;75.57;100801.41;5421806;32;35105;-69
2023/10/12 03:38:43;;;;;;;;;;;;;;;14.41;74.48;100794.28;5423307;32;35316;-69
2023/10/12 03:45:07;;;;;;;;;;;;;;;14.37;73.80;100798.03;5427432;32;34797;-73
2023/10/12 03:48:26;;;;;;;;;;;;;;;15.46;68.65;100788.12;5421751;32;35482;-68
2023/10/12 03:51:38;;;;;;;;;;;;;;;15.96;65.61;100781.88;5420699;32;35643;-73
2023/10/12 03:54:55;;;;;;;;;;;;;;;15.49;66.70;100780.00;5425839;32;35506;-69
2023/10/12 03:58:04;;;;;;;;;;;;;;;15.19;68.50;100777.16;5412249;32;34857;-69
2023/10/12 04:01:12;;;;;;;;;;;;;;;15.26;68.85;100778.53;5414356;32;34737;-69
2023/10/12 04:04:21;;;;;;;;;;;;;;;15.82;65.43;100780.00;5422956;32;34937;-69
2023/10/12 04:07:37;;;;;;;;;;;;;;;15.80;65.30;100773.09;5414694;32;34508;-69
2023/10/12 04:17:59;;;;;;;;;;;;;;;15.10;67.69;100783.78;5415929;32;36017;-70
2023/10/12 04:20:46;;;;;;;;;;;;;;;15.49;66.39;100779.16;5422035;32;35265;-75
2023/10/12 04:24:24;;;;;;;;;;;;;;;15.72;65.88;100783.25;5411589;32;34711;-69
2023/10/12 04:27:24;;;;;;;;;;;;;;;15.43;66.51;100775.03;5424107;32;33972;-68
2023/10/12 04:30:43;;;;;;;;;;;;;;;15.26;66.64;100775.03;5417926;32;34745;-68
2023/10/12 04:34:04;;;;;;;;;;;;;;;15.17;67.43;100771.94;5406327;32;34855;-69
2023/10/12 04:37:11;;;;;;;;;;;;;;;15.52;66.08;100773.66;5420045;32;34989;-72
2023/10/12 04:43:34;;;;;;;;;;;;;;;14.87;68.27;100771.72;5420717;32;33516;-69
2023/10/12 04:46:47;;;;;;;;;;;;;;;15.33;67.51;100776.47;5428542;32;34475;-69
2023/10/12 04:53:06;;;;;;;;;;;;;;;15.15;65.74;100770.34;5417204;32;34827;-68
2023/10/12 04:56:10;;;;;;;;;;;;;;;14.95;66.76;100773.16;5409776;32;34948;-68
2023/10/12 04:59:17;;;;;;;;;;;;;;;15.77;63.93;100774.09;5419344;32;35266;-74
2023/10/12 05:02:41;;;;;;;;;;;;;;;15.92;62.62;100777.72;5416562;32;35308;-74
2023/10/12 05:06:04;;;;;;;;;;;;;;;16.14;62.18;100772.91;5420311;32;34407;-69
2023/10/12 05:09:10;;;;;;;;;;;;;;;16.45;60.52;100769.37;5422639;32;34862;-74
2023/10/12 05:12:13;;;;;;;;;;;;;;;16.50;60.10;100782.41;5420113;32;34901;-69
2023/10/12 05:15:20;;;;;;;;;;;;;;;16.37;60.06;100776.94;5426408;32;34238;-69
2023/10/12 05:18:23;;;;;;;;;;;;;;;16.37;60.14;100794.66;5422126;32;34683;-68
2023/10/12 05:21:25;;;;;;;;;;;;;;;15.37;63.78;100794.75;5421800;32;34880;-69
2023/10/12 05:24:27;;;;;;;;;;;;;;;15.96;61.75;100788.03;5406676;32;34292;-70
2023/10/12 05:27:38;;;;;;;;;;;;;;;15.93;61.86;100784.72;5408254;32;34579;-73
2023/10/12 05:30:50;;;;;;;;;;;;;;;15.77;62.01;100781.19;5419811;32;35672;-69
2023/10/12 05:34:18;;;;;;;;;;;;;;;16.32;59.65;100786.94;5408902;32;34919;-73
2023/10/12 05:37:26;;;;;;;;;;;;;;;16.52;58.96;100788.47;5420743;32;34910;-73
2023/10/12 05:40:35;;;;;;;;;;;;;;;16.56;58.51;100779.41;5421296;32;35019;-74
2023/10/12 05:43:40;;;;;;;;;;;;;;;16.47;59.17;100787.88;5425624;32;34421;-68
2023/10/12 05:46:45;;;;;;;;;;;;;;;16.22;60.41;100791.91;5428461;32;35287;-76
2023/10/12 05:49:50;;;;;;;;;;;;;;;16.87;58.30;100788.22;5412329;32;35520;-69
2023/10/12 05:52:59;;;;;;;;;;;;;;;16.49;59.19;100799.28;5387224;32;35225;-73
2023/10/12 05:56:01;;;;;;;;;;;;;;;17.30;57.07;100779.41;5417779;32;35096;-74
2023/10/12 05:59:12;;;;;;;;;;;;;;;18.18;53.40;100774.84;5407105;32;34412;-73
2023/10/12 06:02:17;;;;;;;;;;;;;;;18.94;50.74;100775.13;5404706;32;34473;-70
2023/10/12 06:05:19;;;;;;;;;;;;;;;19.33;49.41;100776.00;5414878;32;34826;-78
2023/10/12 06:08:25;;;;;;;;;;;;;;;18.99;50.82;100784.59;5420476;32;35819;-73
2023/10/12 06:11:29;;;;;;;;;;;;;;;18.54;51.85;100789.34;5410190;32;34165;-69
2023/10/12 06:14:31;;;;;;;;;;;;;;;18.72;50.86;100812.12;5413917;32;34348;-71
2023/10/12 06:17:39;;;;;;;;;;;;;;;18.30;51.80;100815.75;5399918;32;35702;-75
2023/10/12 06:20:42;;;;;;;;;;;;;;;17.86;53.56;100806.13;5405137;32;34309;-75
2023/10/12 06:23:50;;;;;;;;;;;;;;;18.50;51.60;100806.47;5411660;32;34710;-73
2023/10/12 06:26:52;;;;;;;;;;;;;;;19.16;50.29;100805.63;5347515;32;34324;-72
2023/10/12 06:29:55;;;;;;;;;;;;;;;20.01;46.93;100809.44;5349722;32;34087;-69
2023/10/12 06:33:01;;;;;;;;;;;;;;;21.18;43.73;100801.66;5360187;32;35571;-70
2023/10/12 06:36:03;;;;;;;;;;;;;;;22.31;41.09;100803.47;5378825;32;34025;-76
2023/10/12 06:42:26;;;;;;;;;;;;;;;22.02;42.11;100798.59;5365611;32;36579;-76
2023/10/12 06:45:29;;;;;;;;;;;;;;;23.48;38.59;100784.62;5374717;32;34871;-70
2023/10/12 06:51:33;;;;;;;;;;;;;;;22.94;39.50;100789.25;5382312;32;34514;-71
2023/10/12 06:57:43;;;;;;;;;;;;;;;22.24;39.68;100791.53;5356126;32;34448;-72
2023/10/12 07:01:37;;;;;;;;;;;;;;;20.30;44.67;100807.34;5379653;32;34322;-70
2023/10/12 07:04:17;;;;;;;;;;;;;;;20.34;44.84;100811.47;5381661;32;35962;-75
2023/10/12 07:07:26;;;;;;;;;;;;;;;20.66;44.21;100808.28;5371302;32;34986;-70
2023/10/12 07:10:29;;;;;;;;;;;;;;;22.05;40.87;100797.50;5378158;32;33862;-68
2023/10/12 07:13:31;;;;;;;;;;;;;;;21.28;42.76;100808.03;5354370;32;34585;-73
2023/10/12 07:16:40;;;;;;;;;;;;;;;21.48;42.64;100798.47;5382101;32;35145;-72
2023/10/12 07:19:54;;;;;;;;;;;;;;;23.28;38.40;100794.41;5403571;32;34505;-73
2023/10/12 07:22:56;;;;;;;;;;;;;;;22.60;39.71;100795.69;5399700;32;34805;-74
2023/10/12 07:26:00;;;;;;;;;;;;;;;21.75;41.18;100801.66;5413071;32;35345;-69
2023/10/12 07:29:16;;;;;;;;;;;;;;;23.35;38.47;100779.50;5408949;32;34398;-70
2023/10/12 07:32:38;;;;;;;;;;;;;;;24.25;36.19;100779.56;5417109;32;34095;-71
2023/10/12 07:35:42;;;;;;;;;;;;;;;23.32;37.63;100778.91;5415689;32;35568;-70
2023/10/12 07:38:46;;;;;;;;;;;;;;;19.02;47.71;100792.38;5408148;32;34268;-74
2023/10/12 07:41:55;;;;;;;;;;;;;;;19.36;47.54;100794.44;5409056;32;33364;-70
2023/10/12 07:44:59;;;;;;;;;;;;;;;18.79;49.47;100799.25;5401449;32;35247;-71
2023/10/12 07:48:02;;;;;;;;;;;;;;;18.16;51.10;100792.69;5417686;32;35425;-69
2023/10/12 07:51:16;;;;;;;;;;;;;;;18.40;50.99;100795.56;5414615;32;35101;-72
2023/10/12 07:57:39;;;;;;;;;;;;;;;18.41;50.95;100798.12;5415076;32;34567;-75
2023/10/12 08:00:41;;;;;;;;;;;;;;;18.57;50.59;100795.31;5393765;32;34867;-69
2023/10/12 08:03:50;;;;;;;;;;;;;;;18.06;52.37;100802.22;5423463;32;35050;-69
2023/10/12 08:06:53;;;;;;;;;;;;;;;18.19;52.21;100789.84;5413343;32;36199;-75
2023/10/12 08:10:08;;;;;;;;;;;;;;;18.20;52.04;100785.38;5406695;32;35699;-73
2023/10/12 08:16:28;;;;;;;;;;;;;;;18.76;50.53;100787.00;5400208;32;35610;-74
2023/10/12 08:19:38;;;;;;;;;;;;;;;18.76;50.72;100775.50;5419696;32;33622;-69
2023/10/12 08:22:41;;;;;;;;;;;;;;;18.66;51.04;100781.44;5402649;32;34830;-69
2023/10/12 08:25:49;;;;;;;;;;;;;;;18.14;52.82;100776.81;5413166;32;34256;-72
2023/10/12 08:28:55;;;;;;;;;;;;;;;18.76;51.70;100776.34;5418991;32;34299;-70
2023/10/12 08:38:15;;;;;;;;;;;;;;;20.22;47.56;100772.34;5378346;32;33434;-70
2023/10/12 08:44:29;;;;;;;;;;;;;;;19.53;50.00;100768.44;5372302;32;35781;-69
2023/10/12 08:50:49;;;;;;;;;;;;;;;20.26;47.78;100771.16;5358360;32;34279;-69
2023/10/12 08:53:51;;;;;;;;;;;;;;;18.48;52.81;100760.47;5375358;32;34253;-70
2023/10/12 08:56:53;;;;;;;;;;;;;;;18.95;52.10;100760.00;5384759;32;35170;-72
2023/10/12 09:00:19;;;;;;;;;;;;;;;18.92;52.05;100755.72;5367367;32;34161;-71
2023/10/12 09:09:48;;;;;;;;;;;;;;;19.51;51.25;100741.00;5376867;32;34992;-70
2023/10/12 09:12:50;;;;;;;;;;;;;;;20.35;48.50;100741.13;5366815;32;34798;-68
2023/10/12 09:15:56;;;;;;;;;;;;;;;21.11;46.91;100726.47;5371697;32;34270;-73
2023/10/12 09:18:59;;;;;;;;;;;;;;;20.82;47.71;100742.06;5382245;32;34075;-67
2023/10/12 09:22:03;;;;;;;;;;;;;;;19.92;50.05;100744.28;5377248;32;35981;-67
2023/10/12 09:25:05;;;;;;;;;;;;;;;20.99;47.24;100725.59;5375157;32;34157;-65
2023/10/12 09:28:15;;;;;;;;;;;;;;;21.27;46.63;100731.47;5377998;32;36510;-71
2023/10/12 09:31:50;;;;;;;;;;;;;;;20.73;47.99;100732.91;5372907;32;35605;-71
2023/10/12 09:34:47;;;;;;;;;;;;;;;21.16;46.88;100726.94;5381613;32;35691;-66
2023/10/12 09:37:51;;;;;;;;;;;;;;;21.56;45.50;100724.69;5379128;32;34262;-72
2023/10/12 09:40:54;;;;;;;;;;;;;;;21.46;46.06;100723.75;5378921;32;35294;-73
2023/10/12 09:43:56;;;;;;;;;;;;;;;21.49;46.35;100718.13;5373309;32;34262;-69
2023/10/12 09:46:59;;;;;;;;;;;;;;;21.32;46.96;100715.97;5375816;32;35046;-73
2023/10/12 09:50:13;;;;;;;;;;;;;;;22.02;45.60;100712.94;5377556;32;35574;-73
2023/10/12 09:53:21;;;;;;;;;;;;;;;22.88;43.43;100705.84;5401188;32;34382;-67
2023/10/12 09:56:33;;;;;;;;;;;;;;;23.74;41.84;100702.72;5416370;32;34392;-75
2023/10/12 09:59:39;;;;;;;;;;;;;;;25.82;37.39;100691.28;5410800;32;34405;-75
2023/10/12 10:02:42;;;;;;;;;;;;;;;27.47;34.47;100700.59;5412162;32;35536;-71
2023/10/12 10:06:10;;;;;;;;;;;;;;;26.22;36.17;100689.22;5420960;32;34866;-73
2023/10/12 10:12:42;;;;;;;;;;;;;;;29.73;29.57;100678.34;5415315;32;35453;-75
2023/10/12 10:15:55;;;;;;;;;;;;;;;28.40;32.21;100673.53;5416995;32;34602;-68
2023/10/12 10:19:13;;;;;;;;;;;;;;;30.99;28.57;100664.34;5408983;32;34951;-68
2023/10/12 10:22:16;;;;;;;;;;;;;;;28.24;32.15;100675.19;5422005;32;34768;-67
2023/10/12 10:25:18;;;;;;;;;;;;;;;26.11;36.32;100687.56;5396027;32;35475;-68
2023/10/12 10:28:23;;;;;;;;;;;;;;;24.28;40.48;100687.13;5395592;32;35360;-67
2023/10/12 10:31:31;;;;;;;;;;;;;;;26.56;36.19;100679.44;5407876;32;35513;-73
2023/10/12 10:34:34;;;;;;;;;;;;;;;26.92;35.83;100687.44;5419338;32;33191;-65
2023/10/12 10:37:38;;;;;;;;;;;;;;;26.75;35.57;100683.78;5418038;32;34806;-66
2023/10/12 10:40:48;;;;;;;;;;;;;;;24.35;40.30;100676.72;5398175;32;34162;-66
2023/10/12 10:43:52;;;;;;;;;;;;;;;24.40;40.64;100669.06;5409827;32;37713;-72
2023/10/12 10:47:00;;;;;;;;;;;;;;;25.04;39.16;100660.31;5413790;32;35284;-65
2023/10/12 10:50:03;;;;;;;;;;;;;;;24.89;39.82;100657.25;5402597;32;34592;-71
2023/10/12 10:53:08;;;;;;;;;;;;;;;24.18;41.29;100665.66;5421065;32;34324;-67
2023/10/12 10:56:13;;;;;;;;;;;;;;;24.85;40.08;100663.91;5412077;32;33223;-77
2023/10/12 10:59:18;;;;;;;;;;;;;;;26.31;37.31;100654.09;5417821;32;35542;-67
2023/10/12 11:02:21;;;;;;;;;;;;;;;26.25;37.67;100649.31;5417334;32;35813;-67
2023/10/12 11:05:28;;;;;;;;;;;;;;;26.09;37.73;100647.34;5411527;32;34923;-74
2023/10/12 11:08:36;;;;;;;;;;;;;;;26.71;36.60;100645.50;5402804;32;35730;-67
2023/10/12 11:11:44;;;;;;;;;;;;;;;25.35;39.43;100652.84;5417839;32;34756;-67
2023/10/12 11:14:52;;;;;;;;;;;;;;;25.57;39.09;100647.09;5406194;32;34791;-74
2023/10/12 11:17:57;;;;;;;;;;;;;;;25.47;39.53;100642.75;5396872;32;34351;-70
2023/10/12 11:21:03;;;;;;;;;;;;;;;25.17;40.29;100646.56;5401578;32;35638;-74
2023/10/12 11:24:09;;;;;;;;;;;;;;;24.20;42.54;100644.84;5406807;32;34252;-68
2023/10/12 11:27:11;;;;;;;;;;;;;;;24.46;41.92;100629.03;5399451;32;34286;-68
2023/10/12 11:30:19;;;;;;;;;;;;;;;26.89;37.21;100623.87;5414372;32;33789;-75
2023/10/12 11:33:27;;;;;;;;;;;;;;;25.99;38.96;100614.22;5410946;32;34697;-68
2023/10/12 11:36:29;;;;;;;;;;;;;;;25.08;40.80;100616.03;5409725;32;34403;-70
2023/10/12 11:39:39;;;;;;;;;;;;;;;24.61;42.43;100613.34;5408339;32;35497;-77
2023/10/12 11:42:53;;;;;;;;;;;;;;;25.15;41.37;100611.75;5394695;32;34952;-76
2023/10/12 11:46:03;;;;;;;;;;;;;;;25.80;39.66;100601.75;5401437;32;34452;-77
2023/10/12 11:49:07;;;;;;;;;;;;;;;25.26;41.19;100598.12;5406990;32;35672;-77
2023/10/12 11:52:15;;;;;;;;;;;;;;;25.23;41.71;100584.94;5396285;32;34384;-75
2023/10/12 11:55:21;;;;;;;;;;;;;;;25.92;40.04;100579.00;5419968;32;34328;-69
2023/10/12 11:58:23;;;;;;;;;;;;;;;25.50;40.93;100586.78;5409018;32;34347;-74
2023/10/12 12:01:29;;;;;;;;;;;;;;;25.19;41.62;100585.44;5403458;32;35644;-75
2023/10/12 12:04:39;;;;;;;;;;;;;;;25.90;40.38;100582.84;5401008;32;34932;-69
2023/10/12 12:07:59;;;;;;;;;;;;;;;26.23;39.56;100580.44;5400382;32;35570;-73
2023/10/12 12:11:03;;;;;;;;;;;;;;;25.50;41.43;100594.00;5408381;32;33097;-67
2023/10/12 12:14:06;;;;;;;;;;;;;;;26.35;39.68;100582.72;5413753;32;33639;-72
2023/10/12 12:17:08;;;;;;;;;;;;;;;25.75;40.78;100579.84;5412071;32;34369;-72
2023/10/12 12:20:16;;;;;;;;;;;;;;;25.93;40.53;100571.75;5407224;32;35586;-68
2023/10/12 12:23:18;;;;;;;;;;;;;;;25.99;40.49;100567.62;5417982;32;34499;-64
2023/10/12 12:26:22;;;;;;;;;;;;;;;26.14;40.40;100568.75;5414033;32;34311;-71
2023/10/12 12:29:26;;;;;;;;;;;;;;;25.26;42.62;100573.91;5418081;32;34164;-74
2023/10/12 12:32:39;;;;;;;;;;;;;;;27.42;38.03;100560.72;5399867;32;34382;-79
2023/10/12 12:35:42;;;;;;;;;;;;;;;27.61;37.53;100553.34;5408444;32;34408;-76
2023/10/12 12:38:45;;;;;;;;;;;;;;;27.80;37.16;100551.19;5414863;32;34252;-76
2023/10/12 12:41:48;;;;;;;;;;;;;;;27.53;37.92;100554.19;5410146;32;34613;-69
2023/10/12 12:44:49;;;;;;;;;;;;;;;27.44;38.20;100529.03;5417097;32;34870;-77
2023/10/12 12:47:55;;;;;;;;;;;;;;;29.64;34.07;100523.16;5406438;32;34729;-75
2023/10/12 12:50:57;;;;;;;;;;;;;;;29.22;34.55;100515.44;5405890;32;33745;-78
2023/10/12 12:54:02;;;;;;;;;;;;;;;29.48;34.25;100511.56;5425411;32;35303;-70
2023/10/12 12:57:04;;;;;;;;;;;;;;;30.75;32.02;100502.66;5405918;32;34400;-67
2023/10/12 13:00:09;;;;;;;;;;;;;;;31.58;30.68;100490.50;5417530;32;33781;-73
2023/10/12 13:03:11;;;;;;;;;;;;;;;32.13;29.38;100491.59;5409622;32;34864;-68
2023/10/12 13:06:16;;;;;;;;;;;;;;;32.33;29.44;100487.19;5426758;32;34301;-76
2023/10/12 13:09:33;;;;;;;;;;;;;;;31.81;30.53;100488.41;5425398;32;34210;-70
2023/10/12 13:12:40;;;;;;;;;;;;;;;32.61;29.18;100494.47;5407979;32;35629;-76
2023/10/12 13:15:48;;;;;;;;;;;;;;;34.67;26.30;100476.53;5415005;32;35338;-68
2023/10/12 13:18:50;;;;;;;;;;;;;;;35.64;25.10;100485.53;5422372;32;33905;-76
2023/10/12 13:21:53;;;;;;;;;;;;;;;37.29;22.71;100469.22;5408734;32;35274;-74
2023/10/12 13:24:59;;;;;;;;;;;;;;;37.68;22.30;100474.16;5421167;32;34491;-76
2023/10/12 13:28:01;;;;;;;;;;;;;;;39.37;20.39;100483.38;5424939;32;35032;-76
2023/10/12 13:31:04;;;;;;;;;;;;;;;40.41;19.18;100467.19;5413261;32;34609;-75
2023/10/12 13:34:10;;;;;;;;;;;;;;;37.94;21.66;100469.31;5407078;32;35270;-78
2023/10/12 13:37:13;;;;;;;;;;;;;;;35.71;24.07;100473.47;5422300;32;34984;-74
2023/10/12 13:40:15;;;;;;;;;;;;;;;35.83;24.30;100473.59;5419503;32;34170;-69
2023/10/12 13:43:26;;;;;;;;;;;;;;;35.31;24.56;100470.16;5411601;32;35011;-69
2023/10/12 13:46:30;;;;;;;;;;;;;;;33.99;26.38;100471.41;5415814;32;34768;-69
2023/10/12 13:49:34;;;;;;;;;;;;;;;33.57;27.23;100462.56;5422839;32;34663;-72
2023/10/12 13:52:37;;;;;;;;;;;;;;;31.36;30.40;100472.50;5424770;32;34416;-67
2023/10/12 13:55:40;;;;;;;;;;;;;;;30.43;32.06;100466.72;5422220;32;34191;-68
2023/10/12 13:58:44;;;;;;;;;;;;;;;29.39;33.89;100459.34;5416569;32;35006;-73
2023/10/12 14:01:48;;;;;;;;;;;;;;;27.56;37.50;100470.16;5410015;32;35524;-70
2023/10/12 14:04:53;;;;;;;;;;;;;;;28.47;35.78;100463.69;5416082;32;34622;-67
2023/10/12 14:07:58;;;;;;;;;;;;;;;26.98;38.76;100452.16;5402837;32;35026;-67
2023/10/12 14:11:03;;;;;;;;;;;;;;;27.70;37.38;100458.75;5415199;32;34480;-69
2023/10/12 14:14:09;;;;;;;;;;;;;;;27.27;38.22;100460.69;5409754;32;34726;-71
2023/10/12 14:17:11;;;;;;;;;;;;;;;26.21;40.25;100470.13;5408829;32;34744;-65
2023/10/12 14:20:13;;;;;;;;;;;;;;;26.17;40.38;100460.69;5414046;32;35389;-71
2023/10/12 14:23:15;;;;;;;;;;;;;;;27.36;38.04;100460.69;5405795;32;35110;-70
2023/10/12 14:26:17;;;;;;;;;;;;;;;26.79;38.92;100465.91;5418005;32;34968;-69
2023/10/12 14:29:20;;;;;;;;;;;;;;;27.19;37.92;100455.28;5411467;32;34265;-65
2023/10/12 14:32:25;;;;;;;;;;;;;;;26.90;38.71;100458.38;5413964;32;35315;-65
2023/10/12 14:35:28;;;;;;;;;;;;;;;26.66;38.95;100464.53;5423090;32;35424;-67
2023/10/12 14:38:32;;;;;;;;;;;;;;;26.50;39.46;100452.81;5416702;32;34856;-70
2023/10/12 14:41:36;;;;;;;;;;;;;;;26.01;40.54;100455.19;5417601;32;35315;-65
2023/10/12 14:44:38;;;;;;;;;;;;;;;26.50;39.12;100460.91;5406967;32;34163;-65
2023/10/12 14:47:40;;;;;;;;;;;;;;;26.28;39.61;100459.59;5429518;32;34952;-67
2023/10/12 14:50:45;;;;;;;;;;;;;;;26.09;40.17;100461.50;5422092;32;34912;-69
2023/10/12 14:53:50;;;;;;;;;;;;;;;26.31;39.90;100454.72;5402768;32;34270;-66
2023/10/12 14:56:53;;;;;;;;;;;;;;;26.32;39.87;100451.00;5425975;32;35624;-66
2023/10/12 14:59:56;;;;;;;;;;;;;;;26.55;39.22;100451.34;5418976;32;36558;-69
2023/10/12 15:02:58;;;;;;;;;;;;;;;26.62;39.04;100451.53;5420652;32;34463;-66
2023/10/12 15:06:01;;;;;;;;;;;;;;;26.50;39.24;100455.53;5416180;32;35348;-71
2023/10/12 15:09:03;;;;;;;;;;;;;;;26.39;39.33;100449.34;5417001;32;34274;-66
2023/10/12 15:12:05;;;;;;;;;;;;;;;26.18;40.05;100452.44;5416771;32;34802;-66
2023/10/12 15:15:11;;;;;;;;;;;;;;;26.08;40.52;100465.19;5418285;32;36036;-69
2023/10/12 15:18:13;;;;;;;;;;;;;;;25.96;40.69;100465.62;5421254;32;36747;-66
2023/10/12 15:21:16;;;;;;;;;;;;;;;25.91;41.04;100466.06;5414839;32;34792;-67
2023/10/12 15:24:39;;;;;;;;;;;;;;;26.20;40.69;100465.75;5421854;32;34363;-70
2023/10/12 15:27:41;;;;;;;;;;;;;;;26.00;40.95;100473.19;5421198;32;34273;-65
2023/10/12 15:30:43;;;;;;;;;;;;;;;25.92;41.24;100473.16;5427017;32;34759;-69
2023/10/12 15:33:45;;;;;;;;;;;;;;;25.96;41.06;100481.78;5422901;32;34901;-66
2023/10/12 15:36:47;;;;;;;;;;;;;;;25.81;41.54;100479.62;5420838;32;34820;-69
2023/10/12 15:39:49;;;;;;;;;;;;;;;25.73;41.57;100487.63;5425065;32;35637;-66
2023/10/12 15:42:54;;;;;;;;;;;;;;;25.39;42.22;100485.63;5422393;32;34894;-65
2023/10/12 15:45:57;;;;;;;;;;;;;;;25.46;42.50;100495.75;5425756;32;35721;-69
2023/10/12 15:49:00;;;;;;;;;;;;;;;25.58;42.92;100498.06;5422294;32;35728;-66
2023/10/12 15:52:02;;;;;;;;;;;;;;;25.14;44.33;100496.28;5422353;32;34387;-66
2023/10/12 15:55:05;;;;;;;;;;;;;;;25.05;44.58;100498.88;5426280;32;34151;-68
2023/10/12 15:58:11;;;;;;;;;;;;;;;24.89;45.42;100500.47;5419310;32;35095;-69
2023/10/12 16:01:14;;;;;;;;;;;;;;;24.72;45.65;100504.78;5426821;32;34924;-66
2023/10/12 16:04:16;;;;;;;;;;;;;;;24.65;45.47;100501.84;5420013;32;34834;-68
2023/10/12 16:07:19;;;;;;;;;;;;;;;24.83;45.59;100502.75;5405060;32;35090;-67
2023/10/12 16:10:21;;;;;;;;;;;;;;;24.62;45.86;100502.16;5425907;32;34985;-70
2023/10/12 16:13:24;;;;;;;;;;;;;;;24.41;46.18;100498.81;5423453;32;34405;-65
2023/10/12 16:16:26;;;;;;;;;;;;;;;24.33;46.43;100502.22;5425328;32;35206;-69
2023/10/12 16:19:29;;;;;;;;;;;;;;;24.70;45.59;100504.09;5422302;32;34700;-70
2023/10/12 16:22:32;;;;;;;;;;;;;;;24.77;45.73;100506.03;5424762;32;35730;-66
2023/10/12 16:25:34;;;;;;;;;;;;;;;24.45;46.45;100510.97;5423550;32;34678;-70
2023/10/12 16:28:40;;;;;;;;;;;;;;;24.40;46.48;100513.25;5424131;32;35464;-69
2023/10/12 16:31:43;;;;;;;;;;;;;;;24.28;46.66;100516.09;5430444;32;35065;-68
2023/10/12 16:34:46;;;;;;;;;;;;;;;24.42;46.33;100511.28;5418781;32;34221;-65
2023/10/12 16:37:50;;;;;;;;;;;;;;;24.20;46.92;100515.97;5421274;32;34546;-66
2023/10/12 16:40:53;;;;;;;;;;;;;;;23.91;47.84;100512.50;5424070;32;34858;-69
2023/10/12 16:43:55;;;;;;;;;;;;;;;23.94;47.95;100529.13;5410437;32;35026;-66
2023/10/12 16:46:57;;;;;;;;;;;;;;;23.58;48.89;100522.63;5422952;32;34705;-69
2023/10/12 16:50:00;;;;;;;;;;;;;;;23.66;48.86;100530.00;5406714;32;34788;-70
2023/10/12 16:53:04;;;;;;;;;;;;;;;23.97;48.14;100517.28;5431121;32;34603;-70
2023/10/12 16:56:10;;;;;;;;;;;;;;;23.99;48.53;100526.03;5427249;32;35352;-66
2023/10/12 16:59:12;;;;;;;;;;;;;;;23.85;48.80;100529.16;5421532;32;34328;-68
2023/10/12 17:02:15;;;;;;;;;;;;;;;23.74;49.10;100538.19;5420196;32;35540;-70
2023/10/12 17:05:23;;;;;;;;;;;;;;;23.40;49.85;100530.50;5421919;32;33897;-66